Hawaii Volcanoes National Park, HI

11:38 AM HST on August 27, 2014 (GMT -1000)
Bradshaw Army Air Field | Change Station
CLOSE
Current Station
Airport
Location: Bradshaw AFB,
Elevation: 6191 ft
Nearby Weather Stations

Elev 6191 ft 19.76 °N, 155.55 °W | Updated 42 minutes ago

Clear
Clear
68 °F
Feels Like 68 °F
N
8
Wind Variable Wind from WSW
Gusts 16 mph

Today
High -- | Low -- °F
--% Chance of Precip.
Yesterday
High -- | Low -- °F
Precip. -- in
6:04 AM 6:39 PM
Waxing Crescent, 5% visible
Pressure 29.90 in
Visibility 12.0 miles
Clouds Clear
Dew Point 48 °F
Humidity 50%
Rainfall 0.00 in
Snow Depth Not available.
UV 12 out of 12
Pollen Not available.
Air Quality Not available.
Flu Activity Not available.
METAR PHSF 272056Z AUTO 24007G14KT 12SM CLR 20/09 A3025 RMK AO2 SLP125 T01990091 58002

More Conditions Fewer Conditions

Pressure 29.90 in
Visibility 12.0 miles
Clouds Clear
Dew Point 48 °F
Humidity 50%
Rainfall 0.00 in
Snow Depth Not available.
UV 12 out of 12
Pollen Not available.
Air Quality Not available.
Flu Activity Not available.
METAR PHSF 272056Z AUTO 24007G14KT 12SM CLR 20/09 A3025 RMK AO2 SLP125 T01990091 58002

More Conditions Fewer Conditions

10-Day Weather Forecast

Almanac

Astronomy

Aug. 27, 2014 Rise Set
Actual Time 6:04 AM HST 6:39 PM HST
Civil Twilight 5:42 AM HST 7:02 PM HST
Nautical Twilight 5:16 AM HST 7:28 PM HST
Astronomical Twilight 4:49 AM HST 7:54 PM HST
Moon 7:48 AM HST 8:03 PM HST
Length of Visible Light 13h 19m
Length of Day
12h 35m
Tomorrow will be 1m 2s shorter.
Waxing Crescent, 5% of the Moon is Illuminated
Today
Waxing Crescent
Sep 2
First Quarter
Sep 8
Full
Sep 15
Last Quarter
Sep 24
New

Today's Extremes

State Highs State Lows

Community

WunderPhotos

Upload Photos

1,747,791 photos uploaded!

Nearby

Snow Depth

Station Depth Elevation
No new snow has been reported.

Earthquake Activity

City Distance Mag. Time & Date
No recent earthquake activity has been reported nearby.
Minimum magnitude displayed is 2.5.

Coastal Water Temperatures

Place Temperature
No Stations Reporting

Nearby Weather Stations